createdAt,value
2018-04-29T00:00:22.482Z,15.20
2018-04-29T00:02:25.902Z,15.20
2018-04-29T00:04:29.067Z,15.10
2018-04-29T00:06:32.283Z,15.10
2018-04-29T00:08:35.727Z,15.00
2018-04-29T00:10:40.266Z,15.00
2018-04-29T00:12:44.375Z,14.90
2018-04-29T00:14:47.544Z,14.80
2018-04-29T00:16:50.718Z,14.90
2018-04-29T00:18:53.887Z,14.80
2018-04-29T00:20:57.065Z,14.80
2018-04-29T00:23:00.246Z,14.70
2018-04-29T00:25:03.422Z,14.70
2018-04-29T00:27:06.582Z,14.70
2018-04-29T00:29:10.511Z,14.60
2018-04-29T00:31:14.450Z,14.60
2018-04-29T00:33:17.627Z,14.50
2018-04-29T00:35:20.814Z,14.60
2018-04-29T00:37:23.995Z,14.50
2018-04-29T00:39:27.220Z,14.50
2018-04-29T00:41:30.395Z,14.40
2018-04-29T00:43:33.580Z,14.40
2018-04-29T00:45:37.525Z,14.40
2018-04-29T00:47:40.692Z,14.40
2018-04-29T00:49:43.866Z,14.40
2018-04-29T00:52:05.069Z,14.40
2018-04-29T00:54:08.243Z,14.40
2018-04-29T00:56:11.412Z,14.30
2018-04-29T00:58:14.582Z,14.30
2018-04-29T01:00:18.986Z,14.30
2018-04-29T01:02:23.622Z,14.30
2018-04-29T01:04:28.204Z,14.20
2018-04-29T01:06:32.970Z,14.20
2018-04-29T01:08:37.460Z,14.20
2018-04-29T01:10:42.879Z,14.20
2018-04-29T01:12:47.419Z,14.10
2018-04-29T01:14:52.810Z,14.10
2018-04-29T01:16:58.157Z,14.00
2018-04-29T01:19:03.466Z,14.00
2018-04-29T01:21:08.219Z,14.00
2018-04-29T01:23:12.930Z,14.00
2018-04-29T01:25:17.297Z,14.00
2018-04-29T01:27:21.991Z,13.90
2018-04-29T01:29:27.284Z,13.90
2018-04-29T01:31:31.648Z,13.80
2018-04-29T01:33:36.397Z,13.80
2018-04-29T01:35:40.934Z,13.80
2018-04-29T01:37:45.547Z,13.80
2018-04-29T01:39:50.630Z,13.70
2018-04-29T01:41:55.006Z,13.70
2018-04-29T01:43:59.391Z,13.70
2018-04-29T01:46:03.909Z,13.60
2018-04-29T01:48:08.440Z,13.50
2018-04-29T01:50:12.881Z,13.50
2018-04-29T01:52:17.989Z,13.40
2018-04-29T01:54:23.425Z,13.30
2018-04-29T01:56:27.850Z,13.30
2018-04-29T01:58:32.448Z,13.30
2018-04-29T02:00:38.490Z,13.20
2018-04-29T02:02:41.779Z,13.20
2018-04-29T02:04:46.441Z,13.10
2018-04-29T02:06:52.059Z,13.10
2018-04-29T02:08:57.194Z,13.00
2018-04-29T02:11:02.379Z,13.00
2018-04-29T02:13:07.798Z,12.90
2018-04-29T02:15:13.139Z,12.90
2018-04-29T02:17:18.782Z,12.80
2018-04-29T02:19:23.535Z,12.80
2018-04-29T02:21:26.796Z,12.80
2018-04-29T02:23:29.966Z,12.70
2018-04-29T02:25:33.130Z,12.70
2018-04-29T02:27:36.390Z,12.60
2018-04-29T02:29:39.495Z,12.60
2018-04-29T02:31:42.658Z,12.50
2018-04-29T02:33:45.823Z,12.50
2018-04-29T02:35:49.755Z,12.50
2018-04-29T02:37:53.685Z,12.40
2018-04-29T02:39:57.635Z,12.40
2018-04-29T02:42:00.795Z,12.40
2018-04-29T02:44:03.976Z,12.30
2018-04-29T02:46:08.007Z,12.30
2018-04-29T02:48:11.174Z,12.20
2018-04-29T02:50:14.679Z,12.20
2018-04-29T02:52:18.629Z,12.20
2018-04-29T02:54:22.585Z,12.10
2018-04-29T02:56:26.897Z,12.10
2018-04-29T02:58:30.774Z,12.10
2018-04-29T03:00:34.818Z,12.00
2018-04-29T03:02:38.762Z,12.00
2018-04-29T03:04:41.931Z,11.90
2018-04-29T03:06:45.099Z,11.90
2018-04-29T03:08:48.265Z,11.90
2018-04-29T03:10:52.202Z,11.80
2018-04-29T03:12:55.378Z,11.80
2018-04-29T03:14:58.547Z,11.80
2018-04-29T03:17:01.721Z,11.70
2018-04-29T03:19:05.654Z,11.70
2018-04-29T03:21:08.823Z,11.70
2018-04-29T03:23:13.496Z,11.60
2018-04-29T03:25:17.929Z,11.60
2018-04-29T03:27:22.163Z,11.60
2018-04-29T03:29:26.090Z,11.50
2018-04-29T03:31:30.024Z,11.50
2018-04-29T03:33:33.195Z,11.50
2018-04-29T03:35:36.383Z,11.50
2018-04-29T03:37:39.561Z,11.50
2018-04-29T03:39:42.728Z,11.40
2018-04-29T03:41:45.898Z,11.40
2018-04-29T03:43:49.071Z,11.40
2018-04-29T03:45:52.269Z,11.30
2018-04-29T03:47:56.201Z,11.30
2018-04-29T03:50:00.144Z,11.20
2018-04-29T03:52:03.648Z,11.20
2018-04-29T03:54:06.815Z,11.20
2018-04-29T03:56:11.911Z,11.20
2018-04-29T03:58:34.552Z,11.20
2018-04-29T04:00:58.944Z,11.10
2018-04-29T04:03:22.102Z,11.10
2018-04-29T04:05:26.751Z,11.00
2018-04-29T04:07:31.387Z,11.00
2018-04-29T04:09:37.108Z,10.90
2018-04-29T04:11:42.410Z,10.90
2018-04-29T04:13:47.937Z,10.90
2018-04-29T04:15:52.945Z,10.90
2018-04-29T04:17:56.219Z,10.80
2018-04-29T04:19:59.596Z,10.80
2018-04-29T04:22:02.754Z,10.80
2018-04-29T04:24:06.686Z,10.80
2018-04-29T04:26:10.616Z,10.80
2018-04-29T04:28:13.807Z,10.80
2018-04-29T04:30:17.914Z,10.70
2018-04-29T04:32:21.075Z,10.80
2018-04-29T04:34:24.242Z,10.70
2018-04-29T04:36:27.412Z,10.70
2018-04-29T04:38:30.583Z,10.70
2018-04-29T04:40:34.511Z,10.70
2018-04-29T04:42:37.675Z,10.70
2018-04-29T04:44:40.859Z,10.70
2018-04-29T04:46:44.022Z,10.70
2018-04-29T04:48:47.959Z,10.70
2018-04-29T04:50:51.135Z,10.60
2018-04-29T04:52:54.308Z,10.60
2018-04-29T04:54:57.470Z,10.60
2018-04-29T04:57:01.438Z,10.60
2018-04-29T04:59:05.016Z,10.60
2018-04-29T05:01:08.971Z,10.60
2018-04-29T05:03:12.134Z,10.60
2018-04-29T05:05:15.315Z,10.60
2018-04-29T05:07:18.784Z,10.60
2018-04-29T05:09:21.958Z,10.60
2018-04-29T05:11:25.403Z,10.60
2018-04-29T05:13:29.336Z,10.60
2018-04-29T05:15:32.783Z,10.60
2018-04-29T05:17:36.068Z,10.70
2018-04-29T05:19:39.253Z,10.60
2018-04-29T05:21:43.163Z,10.70
2018-04-29T05:23:46.351Z,10.70
2018-04-29T05:25:49.502Z,10.70
2018-04-29T05:27:53.407Z,10.80
2018-04-29T05:29:57.256Z,10.70
2018-04-29T05:32:00.427Z,10.80
2018-04-29T05:34:03.571Z,10.80
2018-04-29T05:36:06.710Z,10.90
2018-04-29T05:38:09.930Z,10.90
2018-04-29T05:40:13.701Z,10.90
2018-04-29T05:42:17.606Z,11.00
2018-04-29T05:44:21.240Z,11.00
2018-04-29T05:46:25.240Z,11.00
2018-04-29T05:48:28.396Z,11.00
2018-04-29T05:50:31.591Z,11.10
2018-04-29T05:52:35.521Z,11.20
2018-04-29T05:54:39.130Z,11.10
2018-04-29T05:56:43.077Z,11.30
2018-04-29T05:58:46.443Z,11.20
2018-04-29T06:00:50.497Z,11.30
2018-04-29T06:02:54.007Z,11.30
2018-04-29T06:04:57.238Z,11.40
2018-04-29T06:07:00.422Z,11.40
2018-04-29T06:09:04.458Z,11.50
2018-04-29T06:11:08.372Z,11.60
2018-04-29T06:13:12.282Z,11.60
2018-04-29T06:15:15.463Z,11.60
2018-04-29T06:17:18.626Z,11.70
2018-04-29T06:19:21.779Z,11.70
2018-04-29T06:21:25.149Z,11.80
2018-04-29T06:23:29.283Z,11.80
2018-04-29T06:25:32.431Z,11.90
2018-04-29T06:27:35.611Z,11.90
2018-04-29T06:29:38.745Z,12.00
2018-04-29T06:31:41.917Z,12.10
2018-04-29T06:33:45.065Z,12.10
2018-04-29T06:35:48.243Z,12.20
2018-04-29T06:37:51.383Z,12.20
2018-04-29T06:39:56.363Z,12.20
2018-04-29T06:41:59.647Z,12.30
2018-04-29T06:44:02.788Z,12.40
2018-04-29T06:46:06.728Z,12.50
2018-04-29T06:48:09.887Z,12.40
2018-04-29T06:50:13.057Z,12.50
2018-04-29T06:52:16.203Z,12.50
2018-04-29T06:54:19.373Z,12.60
2018-04-29T06:56:22.510Z,12.70
2018-04-29T06:58:25.655Z,12.70
2018-04-29T07:00:29.588Z,12.80
2018-04-29T07:02:33.499Z,12.90
2018-04-29T07:04:36.667Z,12.80
2018-04-29T07:06:39.843Z,12.90
2018-04-29T07:08:43.019Z,13.00
2018-04-29T07:10:46.965Z,13.10
2018-04-29T07:12:50.875Z,13.10
2018-04-29T07:14:54.042Z,13.10
2018-04-29T07:16:57.185Z,13.20
2018-04-29T07:19:00.326Z,13.20
2018-04-29T07:21:03.521Z,13.30
2018-04-29T07:23:07.487Z,13.40
2018-04-29T07:25:10.631Z,13.30
2018-04-29T07:27:13.798Z,13.40
2018-04-29T07:29:16.969Z,13.40
2018-04-29T07:31:20.882Z,13.60
2018-04-29T07:33:24.073Z,13.50
2018-04-29T07:35:27.232Z,13.60
2018-04-29T07:37:30.409Z,13.60
2018-04-29T07:39:34.321Z,13.80
2018-04-29T07:41:37.508Z,13.70
2018-04-29T07:43:40.651Z,13.80
2018-04-29T07:45:44.560Z,13.90
2018-04-29T07:47:47.797Z,13.90
2018-04-29T07:49:51.752Z,14.00
2018-04-29T07:51:54.892Z,13.90
2018-04-29T07:53:58.038Z,14.00
2018-04-29T07:56:01.975Z,14.10
2018-04-29T07:58:05.114Z,14.10
2018-04-29T08:00:08.278Z,14.10
2018-04-29T08:02:11.431Z,14.10
2018-04-29T08:04:14.570Z,14.20
2018-04-29T08:06:17.813Z,14.20
2018-04-29T08:08:21.526Z,14.20
2018-04-29T08:10:25.434Z,14.30
2018-04-29T08:12:28.604Z,14.30
2018-04-29T08:14:31.746Z,14.30
2018-04-29T08:16:35.669Z,14.40
2018-04-29T08:18:38.855Z,14.40
2018-04-29T08:20:42.003Z,14.50
2018-04-29T08:22:45.992Z,14.60
2018-04-29T08:24:50.161Z,14.60
2018-04-29T08:26:54.071Z,14.70
2018-04-29T08:28:57.221Z,14.70
2018-04-29T08:31:00.395Z,14.80
2018-04-29T08:33:04.298Z,14.80
2018-04-29T08:35:07.480Z,14.80
2018-04-29T08:37:10.655Z,14.90
2018-04-29T08:39:13.803Z,14.90
2018-04-29T08:41:16.984Z,15.00
2018-04-29T08:43:20.189Z,15.00
2018-04-29T08:45:23.311Z,15.10
2018-04-29T08:47:26.454Z,15.10
2018-04-29T08:49:29.612Z,15.10
2018-04-29T08:51:32.783Z,15.20
2018-04-29T08:53:35.929Z,15.30
2018-04-29T08:55:39.099Z,15.30
2018-04-29T08:57:42.275Z,15.40
2018-04-29T08:59:45.429Z,15.40
2018-04-29T09:01:49.334Z,15.60
2018-04-29T09:03:52.619Z,15.60
2018-04-29T09:05:55.697Z,15.70
2018-04-29T09:07:58.858Z,15.70
2018-04-29T09:10:02.003Z,15.80
2018-04-29T09:12:05.173Z,15.90
2018-04-29T09:14:08.321Z,16.00
2018-04-29T09:16:11.493Z,16.10
2018-04-29T09:18:14.678Z,16.20
2018-04-29T09:20:17.838Z,16.30
2018-04-29T09:22:20.987Z,16.40
2018-04-29T09:24:24.168Z,16.50
2018-04-29T09:26:27.315Z,16.60
2018-04-29T09:28:30.460Z,16.70
2018-04-29T09:30:34.404Z,16.90
2018-04-29T09:32:37.566Z,16.90
2018-04-29T09:34:40.755Z,17.00
2018-04-29T09:36:43.932Z,17.10
2018-04-29T09:38:47.098Z,17.20
2018-04-29T09:40:50.251Z,17.30
2018-04-29T09:42:53.425Z,17.40
2018-04-29T09:44:57.367Z,17.60
2018-04-29T09:47:01.291Z,17.70
2018-04-29T09:49:05.234Z,17.80
2018-04-29T09:51:08.406Z,17.80
2018-04-29T09:53:11.543Z,17.90
2018-04-29T09:55:14.762Z,18.00
2018-04-29T09:57:18.635Z,18.10
2018-04-29T09:59:21.816Z,18.10
2018-04-29T10:01:25.811Z,18.20
2018-04-29T10:03:28.954Z,18.20
2018-04-29T10:05:32.090Z,18.30
2018-04-29T10:07:35.270Z,18.30
2018-04-29T10:09:38.460Z,18.30
2018-04-29T10:11:41.606Z,18.40
2018-04-29T10:13:44.772Z,18.40
2018-04-29T10:15:47.911Z,18.40
2018-04-29T10:17:51.088Z,18.50
2018-04-29T10:19:54.227Z,18.50
2018-04-29T10:21:57.389Z,18.60
2018-04-29T10:24:00.562Z,18.60
2018-04-29T10:26:04.474Z,18.80
2018-04-29T10:28:07.633Z,18.70
2018-04-29T10:30:10.820Z,18.80
2018-04-29T10:32:14.732Z,19.00
2018-04-29T10:34:18.981Z,19.10
2018-04-29T10:36:22.886Z,19.20
2018-04-29T10:38:26.800Z,19.30
2018-04-29T10:40:29.974Z,19.20
2018-04-29T10:42:33.116Z,19.30
2018-04-29T10:44:36.287Z,19.40
2018-04-29T10:46:39.460Z,19.50
2018-04-29T10:48:43.363Z,19.70
2018-04-29T10:50:47.340Z,19.80
2018-04-29T10:52:51.246Z,19.90
2018-04-29T10:54:55.184Z,20.00
2018-04-29T10:56:58.347Z,20.00
2018-04-29T10:59:02.999Z,20.20
2018-04-29T11:01:06.939Z,20.40
2018-04-29T11:03:10.852Z,20.50
2018-04-29T11:05:14.890Z,20.70
2018-04-29T11:07:18.800Z,20.80
2018-04-29T11:09:22.711Z,20.90
2018-04-29T11:11:25.879Z,20.90
2018-04-29T11:13:29.029Z,21.00
2018-04-29T11:15:33.675Z,21.20
2018-04-29T11:17:38.343Z,21.30
2018-04-29T11:19:42.279Z,21.40
2018-04-29T11:21:45.425Z,21.40
2018-04-29T11:23:48.610Z,21.50
2018-04-29T11:25:51.750Z,21.60
2018-04-29T11:27:55.112Z,21.60
2018-04-29T11:29:58.258Z,21.70
2018-04-29T11:32:01.404Z,21.80
2018-04-29T11:34:05.445Z,21.90
2018-04-29T11:36:09.360Z,22.00
2018-04-29T11:38:12.535Z,22.00
2018-04-29T11:40:15.804Z,22.10
2018-04-29T11:42:18.908Z,22.30
2018-04-29T11:44:22.047Z,22.40
2018-04-29T11:46:25.231Z,22.50
2018-04-29T11:48:28.374Z,22.60
2018-04-29T11:50:31.555Z,22.70
2018-04-29T11:52:34.722Z,22.90
2018-04-29T11:54:38.636Z,23.00
2018-04-29T11:56:41.778Z,22.90
2018-04-29T11:58:44.961Z,23.10
2018-04-29T12:00:48.107Z,23.20
2018-04-29T12:02:51.276Z,23.20
2018-04-29T12:04:55.217Z,23.30
2018-04-29T12:06:59.128Z,23.30
2018-04-29T12:09:02.311Z,23.30
2018-04-29T12:11:05.463Z,23.40
2018-04-29T12:13:09.411Z,23.40
2018-04-29T12:15:12.587Z,23.40
2018-04-29T12:17:16.502Z,23.50
2018-04-29T12:19:19.676Z,23.50
2018-04-29T12:21:22.852Z,23.50
2018-04-29T12:23:26.018Z,23.50
2018-04-29T12:25:29.919Z,23.50
2018-04-29T12:27:33.102Z,23.50
2018-04-29T12:29:36.278Z,23.50
2018-04-29T12:31:40.207Z,23.50
2018-04-29T12:33:44.314Z,23.40
2018-04-29T12:35:47.434Z,23.40
2018-04-29T12:37:50.576Z,23.40
2018-04-29T12:39:54.108Z,23.40
2018-04-29T12:41:57.251Z,23.30
2018-04-29T12:44:01.158Z,23.20
2018-04-29T12:46:04.330Z,23.20
2018-04-29T12:48:07.466Z,23.10
2018-04-29T12:50:10.615Z,23.10
2018-04-29T12:52:13.817Z,23.00
2018-04-29T12:54:16.966Z,23.00
2018-04-29T12:56:20.111Z,23.00
2018-04-29T12:58:23.253Z,23.00
2018-04-29T13:00:27.207Z,23.00
2018-04-29T13:02:30.375Z,23.10
2018-04-29T13:04:33.522Z,23.10
2018-04-29T13:06:36.690Z,23.10
2018-04-29T13:08:40.615Z,23.20
2018-04-29T13:10:43.754Z,23.10
2018-04-29T13:12:46.929Z,23.20
2018-04-29T13:14:50.863Z,23.30
2018-04-29T13:16:54.803Z,23.40
2018-04-29T13:18:58.740Z,23.50
2018-04-29T13:21:01.882Z,23.50
2018-04-29T13:23:05.060Z,23.50
2018-04-29T13:25:08.225Z,23.60
2018-04-29T13:27:11.366Z,23.60
2018-04-29T13:29:15.314Z,23.70
2018-04-29T13:31:18.490Z,23.70
2018-04-29T13:33:22.395Z,23.80
2018-04-29T13:35:25.533Z,23.80
2018-04-29T13:37:28.711Z,23.80
2018-04-29T13:39:31.887Z,23.80
2018-04-29T13:41:35.032Z,23.90
2018-04-29T13:43:38.182Z,23.90
2018-04-29T13:45:41.351Z,24.00
2018-04-29T13:47:44.531Z,24.00
2018-04-29T13:49:47.679Z,24.10
2018-04-29T13:51:51.586Z,24.20
2018-04-29T13:53:55.071Z,24.20
2018-04-29T13:55:58.230Z,24.20
2018-04-29T13:58:02.146Z,24.20
2018-04-29T14:00:06.081Z,24.30
2018-04-29T14:02:10.027Z,24.20
2018-04-29T14:04:13.175Z,24.20
2018-04-29T14:06:16.318Z,24.20
2018-04-29T14:08:20.248Z,24.20
2018-04-29T14:10:24.254Z,24.20
2018-04-29T14:12:27.367Z,24.20
2018-04-29T14:14:30.560Z,24.20
2018-04-29T14:16:33.714Z,24.20
2018-04-29T14:18:36.895Z,24.20
2018-04-29T14:20:40.828Z,24.10
2018-04-29T14:22:44.745Z,24.10
2018-04-29T14:24:48.691Z,24.10
2018-04-29T14:26:51.839Z,24.10
2018-04-29T14:28:54.995Z,24.20
2018-04-29T14:30:58.944Z,24.30
2018-04-29T14:33:02.084Z,24.30
2018-04-29T14:35:05.543Z,24.30
2018-04-29T14:37:09.454Z,24.40
2018-04-29T14:39:12.596Z,24.40
2018-04-29T14:41:15.772Z,24.60
2018-04-29T14:43:18.926Z,24.60
2018-04-29T14:45:22.109Z,24.70
2018-04-29T14:47:25.264Z,24.80
2018-04-29T14:49:28.468Z,24.90
2018-04-29T14:51:31.656Z,25.10
2018-04-29T14:53:34.837Z,25.20
2018-04-29T14:55:38.760Z,25.30
2018-04-29T14:57:42.697Z,25.40
2018-04-29T14:59:45.841Z,25.40
2018-04-29T15:01:49.039Z,25.50
2018-04-29T15:03:52.190Z,25.50
2018-04-29T15:05:55.371Z,25.50
2018-04-29T15:07:58.529Z,25.60
2018-04-29T15:10:02.478Z,25.60
2018-04-29T15:12:05.642Z,25.60
2018-04-29T15:14:08.799Z,25.70
2018-04-29T15:16:12.085Z,25.70
2018-04-29T15:18:33.063Z,25.70
2018-04-29T15:20:36.230Z,25.80
2018-04-29T15:22:39.407Z,25.80
2018-04-29T15:24:43.323Z,25.90
2018-04-29T15:26:46.467Z,25.90
2018-04-29T15:28:49.660Z,26.00
2018-04-29T15:30:52.807Z,26.00
2018-04-29T15:32:56.284Z,26.00
2018-04-29T15:35:00.189Z,26.00
2018-04-29T15:37:04.102Z,26.00
2018-04-29T15:39:07.272Z,26.00
2018-04-29T15:41:10.456Z,25.90
2018-04-29T15:43:13.598Z,25.90
2018-04-29T15:45:16.762Z,25.90
2018-04-29T15:47:20.708Z,25.80
2018-04-29T15:49:23.846Z,25.80
2018-04-29T15:51:27.022Z,25.80
2018-04-29T15:53:30.168Z,25.70
2018-04-29T15:55:33.310Z,25.70
2018-04-29T15:57:37.270Z,25.70
2018-04-29T15:59:40.453Z,25.60
2018-04-29T16:01:44.365Z,25.60
2018-04-29T16:03:48.314Z,25.50
2018-04-29T16:05:51.459Z,25.50
2018-04-29T16:07:54.643Z,25.50
2018-04-29T16:09:57.825Z,25.50
2018-04-29T16:12:01.742Z,25.40
2018-04-29T16:14:05.687Z,25.40
2018-04-29T16:16:09.158Z,25.40
2018-04-29T16:18:12.340Z,25.30
2018-04-29T16:20:15.478Z,25.30
2018-04-29T16:22:18.646Z,25.30
2018-04-29T16:24:21.796Z,25.30
2018-04-29T16:26:24.949Z,25.20
2018-04-29T16:28:28.167Z,25.20
2018-04-29T16:30:31.321Z,25.10
2018-04-29T16:32:34.513Z,25.10
2018-04-29T16:34:37.663Z,25.10
2018-04-29T16:36:41.613Z,25.00
2018-04-29T16:38:44.758Z,25.00
2018-04-29T16:40:47.930Z,25.00
2018-04-29T16:42:51.084Z,25.00
2018-04-29T16:44:54.271Z,24.90
2018-04-29T16:46:58.194Z,24.90
2018-04-29T16:49:01.365Z,24.90
2018-04-29T16:51:04.550Z,24.90
2018-04-29T16:53:08.463Z,24.90
2018-04-29T16:55:11.635Z,24.90
2018-04-29T16:57:14.776Z,24.90
2018-04-29T16:59:17.956Z,24.80
2018-04-29T17:01:21.168Z,24.80
2018-04-29T17:03:25.063Z,24.80
2018-04-29T17:05:28.242Z,24.80
2018-04-29T17:07:32.180Z,24.80
2018-04-29T17:09:36.136Z,24.70
2018-04-29T17:11:39.314Z,24.70
2018-04-29T17:13:43.269Z,24.70
2018-04-29T17:15:46.461Z,24.70
2018-04-29T17:17:49.656Z,24.70
2018-04-29T17:19:53.587Z,24.70
2018-04-29T17:21:57.524Z,24.60
2018-04-29T17:24:00.704Z,24.60
2018-04-29T17:26:04.107Z,24.60
2018-04-29T17:28:07.290Z,24.60
2018-04-29T17:30:10.467Z,24.60
2018-04-29T17:32:13.644Z,24.50
2018-04-29T17:34:17.597Z,24.40
2018-04-29T17:36:20.779Z,24.40
2018-04-29T17:38:24.715Z,24.40
2018-04-29T17:40:28.643Z,24.30
2018-04-29T17:42:32.595Z,24.30
2018-04-29T17:44:35.787Z,24.30
2018-04-29T17:46:39.291Z,24.30
2018-04-29T17:48:43.241Z,24.20
2018-04-29T17:50:46.407Z,24.20
2018-04-29T17:52:49.601Z,24.10
2018-04-29T17:54:52.791Z,24.10
2018-04-29T17:56:56.004Z,24.00
2018-04-29T17:58:59.187Z,24.00
2018-04-29T18:01:02.639Z,23.90
2018-04-29T18:03:05.819Z,23.90
2018-04-29T18:05:08.992Z,23.80
2018-04-29T18:07:12.942Z,23.70
2018-04-29T18:09:16.120Z,23.70
2018-04-29T18:11:20.075Z,23.60
2018-04-29T18:13:23.254Z,23.60
2018-04-29T18:15:27.187Z,23.50
2018-04-29T18:17:31.140Z,23.40
2018-04-29T18:19:34.324Z,23.40
2018-04-29T18:21:38.756Z,23.30
2018-04-29T18:23:42.700Z,23.20
2018-04-29T18:25:45.867Z,23.20
2018-04-29T18:27:49.040Z,23.10
2018-04-29T18:29:52.418Z,23.10
2018-04-29T18:31:56.367Z,23.00
2018-04-29T18:33:59.854Z,22.90
2018-04-29T18:36:03.803Z,22.80
2018-04-29T18:38:06.975Z,22.80
2018-04-29T18:40:10.147Z,22.80
2018-04-29T18:42:13.491Z,22.70
2018-04-29T18:44:17.439Z,22.60
2018-04-29T18:46:21.384Z,22.50
2018-04-29T18:48:24.558Z,22.50
2018-04-29T18:50:27.742Z,22.40
2018-04-29T18:52:31.207Z,22.30
2018-04-29T18:54:34.414Z,22.30
2018-04-29T18:56:39.128Z,22.20
2018-04-29T18:58:43.180Z,22.10
2018-04-29T19:00:47.123Z,22.00
2018-04-29T19:02:50.314Z,22.00
2018-04-29T19:06:58.463Z,21.90
2018-04-29T19:09:02.417Z,21.80
2018-04-29T19:11:05.942Z,21.80
2018-04-29T19:13:09.431Z,21.80
2018-04-29T19:15:12.628Z,21.70
2018-04-29T19:17:16.950Z,21.60
2018-04-29T19:19:20.309Z,21.60
2018-04-29T19:21:23.614Z,21.50
2018-04-29T19:23:26.924Z,21.40
2018-04-29T19:25:30.265Z,21.40
2018-04-29T19:27:33.458Z,21.40
2018-04-29T19:29:36.937Z,21.30
2018-04-29T19:31:40.143Z,21.20
2018-04-29T19:33:45.330Z,21.10
2018-04-29T19:35:49.866Z,21.10
2018-04-29T19:37:53.297Z,21.10
2018-04-29T19:39:56.487Z,21.10
2018-04-29T19:41:59.646Z,21.00
2018-04-29T19:44:03.787Z,20.90
2018-04-29T19:46:07.125Z,20.90
2018-04-29T19:48:10.322Z,20.90
2018-04-29T19:50:14.301Z,20.90
2018-04-29T19:52:17.472Z,20.90
2018-04-29T19:54:21.056Z,20.90
2018-04-29T19:56:24.227Z,20.80
2018-04-29T19:58:27.428Z,20.80
2018-04-29T20:00:32.197Z,20.80
2018-04-29T20:02:35.927Z,20.80
2018-04-29T20:04:40.295Z,20.70
2018-04-29T20:06:44.084Z,20.70
2018-04-29T20:08:47.348Z,20.70
2018-04-29T20:10:50.710Z,20.70
2018-04-29T20:12:54.888Z,20.60
2018-04-29T20:14:58.400Z,20.60
2018-04-29T20:17:01.593Z,20.60
2018-04-29T20:19:05.531Z,20.60
2018-04-29T20:21:08.830Z,20.50
2018-04-29T20:23:12.551Z,20.50
2018-04-29T20:25:16.736Z,20.50
2018-04-29T20:27:20.117Z,20.40
2018-04-29T20:29:23.536Z,20.40
2018-04-29T20:31:26.706Z,20.40
2018-04-29T20:33:30.703Z,20.30
2018-04-29T20:35:34.030Z,20.30
2018-04-29T20:37:37.230Z,20.40
2018-04-29T20:39:40.415Z,20.20
2018-04-29T20:41:43.583Z,20.20
2018-04-29T20:43:47.518Z,20.10
2018-04-29T20:45:50.884Z,20.10
2018-04-29T20:47:54.056Z,20.10
2018-04-29T20:49:57.262Z,20.10
2018-04-29T20:52:01.309Z,20.10
2018-04-29T20:54:05.050Z,20.00
2018-04-29T20:56:08.224Z,20.00
2018-04-29T20:58:11.391Z,20.00
2018-04-29T21:00:15.330Z,19.90
2018-04-29T21:02:19.267Z,19.90
2018-04-29T21:04:22.477Z,19.90
2018-04-29T21:06:25.657Z,19.80
2018-04-29T21:08:28.828Z,19.80
2018-04-29T21:10:32.001Z,19.70
2018-04-29T21:12:35.171Z,19.70
2018-04-29T21:14:38.363Z,19.60
2018-04-29T21:16:41.536Z,19.60
2018-04-29T21:18:44.705Z,19.60
2018-04-29T21:20:47.874Z,19.50
2018-04-29T21:22:51.050Z,19.50
2018-04-29T21:24:54.219Z,19.50
2018-04-29T21:26:57.632Z,19.40
2018-04-29T21:29:02.608Z,19.30
2018-04-29T21:31:06.549Z,19.30
2018-04-29T21:33:09.721Z,19.30
2018-04-29T21:35:12.886Z,19.30
2018-04-29T21:37:16.139Z,19.30
2018-04-29T21:39:20.085Z,19.20
2018-04-29T21:41:25.622Z,19.20
2018-04-29T21:43:28.795Z,19.20
2018-04-29T21:45:31.966Z,19.20
2018-04-29T21:47:35.944Z,19.20
2018-04-29T21:49:39.411Z,19.10
2018-04-29T21:51:43.386Z,19.10
2018-04-29T21:53:46.846Z,19.10
2018-04-29T21:55:50.882Z,19.10
2018-04-29T21:57:54.824Z,19.00
2018-04-29T21:59:58.000Z,19.00
2018-04-29T22:02:01.937Z,19.00
2018-04-29T22:04:05.887Z,19.00
2018-04-29T22:06:09.072Z,18.90
2018-04-29T22:08:13.099Z,18.90
2018-04-29T22:10:17.042Z,18.90
2018-04-29T22:12:20.215Z,18.90
2018-04-29T22:14:23.389Z,18.90
2018-04-29T22:16:26.550Z,18.90
2018-04-29T22:18:30.486Z,18.90
2018-04-29T22:20:33.660Z,18.90
2018-04-29T22:22:37.105Z,18.90
2018-04-29T22:24:40.277Z,18.80
2018-04-29T22:26:43.443Z,18.80
2018-04-29T22:28:46.615Z,18.80
2018-04-29T22:30:50.648Z,18.80
2018-04-29T22:32:54.584Z,18.70
2018-04-29T22:34:57.763Z,18.70
2018-04-29T22:37:01.709Z,18.70
2018-04-29T22:39:06.526Z,18.70
2018-04-29T22:41:10.495Z,18.70
2018-04-29T22:43:13.658Z,18.60
2018-04-29T22:45:16.818Z,18.70
2018-04-29T22:47:19.988Z,18.60
2018-04-29T22:49:23.167Z,18.60
2018-04-29T22:51:26.376Z,18.60
2018-04-29T22:53:29.531Z,18.60
2018-04-29T22:55:33.462Z,18.60
2018-04-29T22:57:37.691Z,18.60
2018-04-29T22:59:41.626Z,18.60
2018-04-29T23:01:44.795Z,18.50
2018-04-29T23:03:47.966Z,18.50
2018-04-29T23:05:51.135Z,18.60
2018-04-29T23:07:55.066Z,18.50
2018-04-29T23:09:58.238Z,18.50
2018-04-29T23:12:01.684Z,18.50
2018-04-29T23:14:05.622Z,18.50
2018-04-29T23:16:08.792Z,18.40
2018-04-29T23:18:11.967Z,18.50
2018-04-29T23:20:15.132Z,18.50
2018-04-29T23:22:19.061Z,18.50
2018-04-29T23:24:23.087Z,18.50
2018-04-29T23:26:27.032Z,18.50
2018-04-29T23:28:30.501Z,18.50
2018-04-29T23:30:33.670Z,18.50
2018-04-29T23:32:36.840Z,18.50
2018-04-29T23:34:40.775Z,18.50
2018-04-29T23:36:43.965Z,18.50
2018-04-29T23:38:47.397Z,18.50
2018-04-29T23:40:51.327Z,18.50
2018-04-29T23:42:54.503Z,18.50
2018-04-29T23:44:57.671Z,18.50
2018-04-29T23:47:00.841Z,18.50
2018-04-29T23:49:04.778Z,18.60
2018-04-29T23:51:09.016Z,18.60
2018-04-29T23:53:12.195Z,18.60
2018-04-29T23:55:15.392Z,18.60
2018-04-29T23:57:18.579Z,18.60
2018-04-29T23:59:21.747Z,18.70
